createdAt,value
2023-01-29T00:01:12.228Z,101855.09
2023-01-29T00:04:13.744Z,101841.22
2023-01-29T00:07:15.198Z,101847.47
2023-01-29T00:10:17.277Z,101837.69
2023-01-29T00:13:18.889Z,101836.69
2023-01-29T00:16:20.921Z,101828.63
2023-01-29T00:19:22.349Z,101839.75
2023-01-29T00:22:24.248Z,101837.22
2023-01-29T00:25:25.651Z,101841.88
2023-01-29T00:28:27.069Z,101832.38
2023-01-29T00:31:28.937Z,101831.44
2023-01-29T00:34:30.403Z,101828.91
2023-01-29T00:37:31.905Z,101826.91
2023-01-29T00:40:56.436Z,101837.69
2023-01-29T00:44:17.285Z,101826.53
2023-01-29T00:47:30.678Z,101834.44
2023-01-29T00:50:32.480Z,101837.16
2023-01-29T00:53:33.914Z,101837.88
2023-01-29T00:56:36.618Z,101835.38
2023-01-29T00:59:38.153Z,101831.06
2023-01-29T01:02:57.909Z,101834.44
2023-01-29T01:06:09.110Z,101840.06
2023-01-29T01:09:29.686Z,101839.88
2023-01-29T01:12:31.911Z,101845.59
2023-01-29T01:15:40.308Z,101845.25
2023-01-29T01:18:42.084Z,101845.25
2023-01-29T01:21:45.417Z,101851.31
2023-01-29T01:24:46.798Z,101854.66
2023-01-29T01:27:48.301Z,101840.94
2023-01-29T01:30:49.716Z,101852.31
2023-01-29T01:33:51.555Z,101843.50
2023-01-29T01:36:58.357Z,101840.88
2023-01-29T01:39:59.820Z,101846.38
2023-01-29T01:43:02.191Z,101836.75
2023-01-29T01:46:03.671Z,101835.53
2023-01-29T01:49:16.011Z,101845.06
2023-01-29T01:52:19.435Z,101836.38
2023-01-29T01:55:24.571Z,101837.97
2023-01-29T01:58:30.569Z,101835.56
2023-01-29T02:01:32.318Z,101838.97
2023-01-29T02:04:52.119Z,101839.69
2023-01-29T02:08:12.725Z,101838.03
2023-01-29T02:11:14.473Z,101835.50
2023-01-29T02:14:16.385Z,101826.06
2023-01-29T02:17:19.974Z,101838.16
2023-01-29T02:20:27.724Z,101844.03
2023-01-29T02:24:00.425Z,101837.03
2023-01-29T02:27:19.842Z,101827.47
2023-01-29T02:30:33.570Z,101827.41
2023-01-29T02:34:02.821Z,101830.72
2023-01-29T02:37:12.230Z,101824.94
2023-01-29T02:40:18.580Z,101824.03
2023-01-29T02:43:38.883Z,101814.38
2023-01-29T02:46:54.355Z,101811.06
2023-01-29T02:50:04.261Z,101808.03
2023-01-29T02:53:15.636Z,101814.38
2023-01-29T02:56:24.041Z,101810.84
2023-01-29T02:59:32.432Z,101807.38
2023-01-29T03:02:37.885Z,101813.44
2023-01-29T03:05:58.405Z,101804.91
2023-01-29T03:09:07.331Z,101803.34
2023-01-29T03:12:33.766Z,101803.28
2023-01-29T03:16:01.418Z,101803.81
2023-01-29T03:19:38.121Z,101793.88
2023-01-29T03:22:56.151Z,101803.28
2023-01-29T03:26:18.212Z,101811.16
2023-01-29T03:29:39.005Z,101812.97
2023-01-29T03:32:44.430Z,101815.69
2023-01-29T03:36:02.352Z,101820.06
2023-01-29T03:39:08.999Z,101820.81
2023-01-29T03:42:26.938Z,101831.25
2023-01-29T03:46:18.618Z,101828.47
2023-01-29T03:49:53.397Z,101824.41
2023-01-29T03:53:08.425Z,101829.84
2023-01-29T03:56:15.794Z,101834.44
2023-01-29T03:59:31.337Z,101830.22
2023-01-29T04:02:56.930Z,101829.19
2023-01-29T04:06:09.790Z,101822.13
2023-01-29T04:09:25.021Z,101829.03
2023-01-29T04:12:34.924Z,101819.47
2023-01-29T04:15:46.322Z,101823.00
2023-01-29T04:18:48.778Z,101828.19
2023-01-29T04:22:02.003Z,101843.50
2023-01-29T04:25:15.874Z,101840.75
2023-01-29T04:28:43.689Z,101840.56
2023-01-29T04:31:57.757Z,101839.88
2023-01-29T04:35:29.463Z,101834.69
2023-01-29T04:38:49.485Z,101827.41
2023-01-29T04:42:22.092Z,101832.84
2023-01-29T04:45:41.982Z,101835.09
2023-01-29T04:48:58.902Z,101833.63
2023-01-29T04:52:20.105Z,101839.81
2023-01-29T04:55:51.320Z,101836.38
2023-01-29T04:59:03.058Z,101835.50
2023-01-29T05:02:06.174Z,101834.78
2023-01-29T05:05:09.460Z,101831.88
2023-01-29T05:08:14.068Z,101824.94
2023-01-29T05:11:17.059Z,101807.00
2023-01-29T05:14:20.074Z,101789.03
2023-01-29T05:17:21.602Z,101792.50
2023-01-29T05:20:23.042Z,101803.53
2023-01-29T05:23:24.437Z,101802.28
2023-01-29T05:26:45.967Z,101785.75
2023-01-29T05:29:47.859Z,101801.63
2023-01-29T05:32:49.268Z,101804.28
2023-01-29T05:35:51.174Z,101799.06
2023-01-29T05:38:52.584Z,101802.47
2023-01-29T05:41:54.114Z,101816.56
2023-01-29T05:44:55.514Z,101808.47
2023-01-29T05:47:58.490Z,101816.72
2023-01-29T05:51:01.237Z,101822.53
2023-01-29T05:54:02.673Z,101822.53
2023-01-29T05:57:04.112Z,101832.66
2023-01-29T06:00:06.664Z,101835.06
2023-01-29T06:03:13.679Z,101826.47
2023-01-29T06:06:15.738Z,101825.75
2023-01-29T06:09:17.203Z,101825.06
2023-01-29T06:12:18.659Z,101822.59
2023-01-29T06:15:20.040Z,101812.03
2023-01-29T06:18:21.478Z,101811.34
2023-01-29T06:21:22.832Z,101808.03
2023-01-29T06:24:24.300Z,101806.28
2023-01-29T06:27:25.830Z,101809.50
2023-01-29T06:30:28.329Z,101813.03
2023-01-29T06:33:29.747Z,101823.00
2023-01-29T06:36:31.291Z,101832.34
2023-01-29T06:39:32.668Z,101829.56
2023-01-29T06:42:37.169Z,101836.91
2023-01-29T06:45:38.581Z,101834.59
2023-01-29T06:48:39.983Z,101833.91
2023-01-29T06:51:41.387Z,101833.03
2023-01-29T06:54:42.824Z,101836.03
2023-01-29T06:57:44.198Z,101829.16
2023-01-29T07:00:45.638Z,101824.84
2023-01-29T07:03:49.946Z,101822.44
2023-01-29T07:06:51.377Z,101825.31
2023-01-29T07:09:52.751Z,101819.41
2023-01-29T07:12:54.123Z,101813.41
2023-01-29T07:16:02.483Z,101812.03
2023-01-29T07:19:03.957Z,101819.69
2023-01-29T07:22:05.669Z,101822.97
2023-01-29T07:25:07.853Z,101838.53
2023-01-29T07:28:09.295Z,101841.88
2023-01-29T07:31:13.158Z,101834.97
2023-01-29T07:34:14.606Z,101846.63
2023-01-29T07:37:15.999Z,101840.75
2023-01-29T07:40:17.766Z,101834.06
2023-01-29T07:43:19.445Z,101843.78
2023-01-29T07:46:20.966Z,101856.16
2023-01-29T07:49:22.353Z,101854.34
2023-01-29T07:52:23.788Z,101858.41
2023-01-29T07:55:25.325Z,101846.38
2023-01-29T07:58:26.714Z,101852.59
2023-01-29T08:01:28.136Z,101848.41
2023-01-29T08:04:29.582Z,101857.00
2023-01-29T08:07:31.026Z,101868.81
2023-01-29T08:10:33.004Z,101865.19
2023-01-29T08:13:34.556Z,101863.53
2023-01-29T08:16:36.016Z,101870.28
2023-01-29T08:19:37.406Z,101880.69
2023-01-29T08:22:38.858Z,101885.56
2023-01-29T08:25:40.323Z,101889.41
2023-01-29T08:28:41.746Z,101879.97
2023-01-29T08:31:43.296Z,101890.06
2023-01-29T08:34:44.726Z,101879.00
2023-01-29T08:37:53.176Z,101870.75
2023-01-29T08:40:54.555Z,101874.56
2023-01-29T08:43:57.145Z,101866.00
2023-01-29T08:46:58.599Z,101865.50
2023-01-29T08:49:59.976Z,101863.97
2023-01-29T08:53:03.518Z,101885.84
2023-01-29T08:56:05.232Z,101889.31
2023-01-29T08:59:06.671Z,101899.44
2023-01-29T09:02:10.870Z,101907.72
2023-01-29T09:05:12.275Z,101913.09
2023-01-29T09:08:13.718Z,101907.56
2023-01-29T09:11:15.114Z,101902.13
2023-01-29T09:14:16.726Z,101875.53
2023-01-29T09:17:18.122Z,101855.88
2023-01-29T09:20:20.067Z,101844.72
2023-01-29T09:23:22.206Z,101830.31
2023-01-29T09:26:23.622Z,101822.19
2023-01-29T09:29:25.092Z,101822.19
2023-01-29T09:32:51.619Z,101832.44
2023-01-29T09:35:48.086Z,101823.38
2023-01-29T09:38:49.462Z,101828.59
2023-01-29T09:42:19.183Z,101836.03
2023-01-29T09:45:26.511Z,101837.63
2023-01-29T09:48:31.649Z,101835.13
2023-01-29T09:51:48.970Z,101828.59
2023-01-29T09:55:02.201Z,101851.88
2023-01-29T09:58:22.792Z,101859.00
2023-01-29T10:01:36.766Z,101858.00
2023-01-29T10:04:50.989Z,101856.28
2023-01-29T10:08:11.077Z,101873.13
2023-01-29T10:11:20.801Z,101868.50
2023-01-29T10:14:52.832Z,101857.06
2023-01-29T10:18:19.152Z,101861.88
2023-01-29T10:21:48.529Z,101874.03
2023-01-29T10:24:54.375Z,101881.94
2023-01-29T10:27:59.121Z,101877.13
2023-01-29T10:31:36.385Z,101873.22
2023-01-29T10:34:46.390Z,101871.41
2023-01-29T10:37:48.524Z,101872.66
2023-01-29T10:41:11.821Z,101865.81
2023-01-29T10:44:13.528Z,101862.97
2023-01-29T10:47:42.406Z,101848.47
2023-01-29T10:50:54.966Z,101836.97
2023-01-29T10:54:08.476Z,101834.31
2023-01-29T10:57:15.209Z,101842.81
2023-01-29T11:00:26.949Z,101842.00
2023-01-29T11:03:31.244Z,101832.94
2023-01-29T11:06:35.117Z,101822.59
2023-01-29T11:09:42.374Z,101816.16
2023-01-29T11:12:45.676Z,101808.88
2023-01-29T11:15:47.093Z,101803.72
2023-01-29T11:18:53.363Z,101805.94
2023-01-29T11:22:00.885Z,101797.75
2023-01-29T11:25:20.320Z,101792.38
2023-01-29T11:28:41.726Z,101782.16
2023-01-29T11:31:43.177Z,101780.47
2023-01-29T11:35:15.689Z,101769.19
2023-01-29T11:38:19.373Z,101773.66
2023-01-29T11:41:22.461Z,101772.38
2023-01-29T11:44:38.460Z,101771.72
2023-01-29T11:47:39.910Z,101765.56
2023-01-29T11:50:41.703Z,101751.09
2023-01-29T11:53:49.326Z,101744.41
2023-01-29T11:56:51.647Z,101734.16
2023-01-29T11:59:55.380Z,101719.75
2023-01-29T12:03:06.210Z,101715.38
2023-01-29T12:06:18.129Z,101699.97
2023-01-29T12:09:27.189Z,101703.22
2023-01-29T12:12:30.387Z,101689.97
2023-01-29T12:15:31.916Z,101694.38
2023-01-29T12:18:42.420Z,101687.00
2023-01-29T12:21:57.982Z,101687.22
2023-01-29T12:25:22.808Z,101676.28
2023-01-29T12:28:54.275Z,101666.78
2023-01-29T12:32:12.597Z,101652.19
2023-01-29T12:35:26.062Z,101653.66
2023-01-29T12:38:27.540Z,101653.78
2023-01-29T12:41:36.922Z,101647.78
2023-01-29T12:44:44.944Z,101634.03
2023-01-29T12:47:53.825Z,101638.84
2023-01-29T12:51:09.419Z,101638.09
2023-01-29T12:54:16.357Z,101633.75
2023-01-29T12:57:53.939Z,101639.06
2023-01-29T13:01:00.815Z,101632.28
2023-01-29T13:04:17.738Z,101639.00
2023-01-29T13:07:25.983Z,101636.31
2023-01-29T13:10:41.096Z,101634.31
2023-01-29T13:14:00.955Z,101625.53
2023-01-29T13:17:40.552Z,101624.06
2023-01-29T13:20:43.405Z,101614.22
2023-01-29T13:23:57.786Z,101612.84
2023-01-29T13:26:59.295Z,101616.31
2023-01-29T13:30:01.505Z,101607.72
2023-01-29T13:33:09.452Z,101611.28
2023-01-29T13:36:20.020Z,101606.69
2023-01-29T13:39:34.235Z,101606.78
2023-01-29T13:42:43.714Z,101600.75
2023-01-29T13:45:45.793Z,101596.47
2023-01-29T13:48:50.827Z,101590.44
2023-01-29T13:51:52.324Z,101583.44
2023-01-29T13:54:57.761Z,101578.22
2023-01-29T13:58:03.698Z,101591.78
2023-01-29T14:01:05.174Z,101582.81
2023-01-29T14:04:18.914Z,101581.09
2023-01-29T14:07:49.869Z,101563.03
2023-01-29T14:11:16.849Z,101568.28
2023-01-29T14:14:51.126Z,101569.25
2023-01-29T14:18:10.662Z,101570.81
2023-01-29T14:21:31.916Z,101577.66
2023-01-29T14:24:33.814Z,101569.84
2023-01-29T14:27:36.880Z,101576.78
2023-01-29T14:30:40.869Z,101564.28
2023-01-29T14:33:43.552Z,101562.66
2023-01-29T14:36:47.955Z,101563.78
2023-01-29T14:39:57.437Z,101552.66
2023-01-29T14:43:06.770Z,101552.66
2023-01-29T14:46:33.202Z,101563.06
2023-01-29T14:49:52.905Z,101561.50
2023-01-29T14:53:00.105Z,101559.81
2023-01-29T14:56:29.320Z,101571.22
2023-01-29T14:59:37.720Z,101573.78
2023-01-29T15:02:42.976Z,101569.16
2023-01-29T15:05:45.062Z,101568.19
2023-01-29T15:08:56.877Z,101565.41
2023-01-29T15:12:28.665Z,101572.16
2023-01-29T15:15:38.180Z,101562.78
2023-01-29T15:18:42.289Z,101562.03
2023-01-29T15:22:07.935Z,101553.22
2023-01-29T15:25:15.993Z,101554.91
2023-01-29T15:28:17.585Z,101555.91
2023-01-29T15:31:20.296Z,101541.19
2023-01-29T15:34:22.256Z,101541.94
2023-01-29T15:37:29.682Z,101544.56
2023-01-29T15:40:31.787Z,101542.75
2023-01-29T15:43:42.714Z,101548.75
2023-01-29T15:46:49.840Z,101552.25
2023-01-29T15:49:52.197Z,101553.97
2023-01-29T15:52:55.168Z,101554.75
2023-01-29T15:55:58.050Z,101557.44
2023-01-29T15:59:04.025Z,101561.69
2023-01-29T16:02:29.826Z,101553.00
2023-01-29T16:05:32.955Z,101552.94
2023-01-29T16:08:35.876Z,101545.88
2023-01-29T16:11:37.540Z,101544.91
2023-01-29T16:14:40.776Z,101546.66
2023-01-29T16:17:42.283Z,101548.47
2023-01-29T16:20:47.221Z,101539.63
2023-01-29T16:23:52.148Z,101533.41
2023-01-29T16:27:00.265Z,101530.63
2023-01-29T16:30:02.124Z,101527.06
2023-01-29T16:33:05.745Z,101520.91
2023-01-29T16:36:18.243Z,101532.13
2023-01-29T16:39:27.575Z,101526.00
2023-01-29T16:42:32.200Z,101526.00
2023-01-29T16:45:33.601Z,101520.66
2023-01-29T16:48:35.115Z,101526.59
2023-01-29T16:51:39.072Z,101521.34
2023-01-29T16:54:43.053Z,101512.50
2023-01-29T16:57:49.733Z,101509.00
2023-01-29T17:01:07.659Z,101499.31
2023-01-29T17:04:18.658Z,101501.75
2023-01-29T17:07:22.155Z,101500.69
2023-01-29T17:10:24.799Z,101504.97
2023-01-29T17:13:45.185Z,101509.22
2023-01-29T17:16:50.701Z,101508.22
2023-01-29T17:19:52.074Z,101516.88
2023-01-29T17:22:53.632Z,101512.53
2023-01-29T17:25:55.506Z,101515.19
2023-01-29T17:28:56.949Z,101510.78
2023-01-29T17:32:00.072Z,101512.34
2023-01-29T17:35:01.694Z,101511.38
2023-01-29T17:38:03.421Z,101514.81
2023-01-29T17:41:25.559Z,101519.34
2023-01-29T17:44:26.951Z,101510.75
2023-01-29T17:47:28.550Z,101510.44
2023-01-29T17:50:32.156Z,101511.19
2023-01-29T17:53:45.230Z,101513.03
2023-01-29T17:56:48.173Z,101512.91
2023-01-29T17:59:49.689Z,101528.53
2023-01-29T18:02:51.757Z,101530.19
2023-01-29T18:05:53.175Z,101534.44
2023-01-29T18:08:54.691Z,101536.84
2023-01-29T18:11:56.060Z,101542.66
2023-01-29T18:14:57.494Z,101544.22
2023-01-29T18:17:59.315Z,101556.28
2023-01-29T18:21:00.833Z,101556.97
2023-01-29T18:24:02.296Z,101559.66
2023-01-29T18:27:03.837Z,101558.69
2023-01-29T18:30:05.790Z,101562.94
2023-01-29T18:33:07.249Z,101566.22
2023-01-29T18:36:08.938Z,101573.03
2023-01-29T18:39:10.329Z,101568.66
2023-01-29T18:42:11.812Z,101567.84
2023-01-29T18:45:15.252Z,101566.06
2023-01-29T18:48:16.985Z,101568.63
2023-01-29T18:51:18.479Z,101563.22
2023-01-29T18:54:21.419Z,101565.03
2023-01-29T18:58:25.920Z,101563.44
2023-01-29T19:00:44.236Z,101567.38
2023-01-29T19:03:45.650Z,101553.47
2023-01-29T19:06:47.032Z,101557.72
2023-01-29T19:09:50.213Z,101556.00
2023-01-29T19:12:51.609Z,101552.53
2023-01-29T19:15:53.019Z,101547.34
2023-01-29T19:18:55.963Z,101544.75
2023-01-29T19:21:57.419Z,101542.19
2023-01-29T19:24:58.893Z,101538.78
2023-01-29T19:28:00.461Z,101530.00
2023-01-29T19:31:02.050Z,101536.69
2023-01-29T19:34:03.638Z,101538.63
2023-01-29T19:37:05.044Z,101535.97
2023-01-29T19:40:08.070Z,101547.19
2023-01-29T19:43:09.444Z,101542.88
2023-01-29T19:46:10.908Z,101540.28
2023-01-29T19:49:12.332Z,101536.94
2023-01-29T19:52:48.855Z,101525.59
2023-01-29T19:56:06.503Z,101527.34
2023-01-29T19:59:07.925Z,101532.44
2023-01-29T20:02:09.737Z,101525.38
2023-01-29T20:05:12.932Z,101525.34
2023-01-29T20:08:14.429Z,101521.06
2023-01-29T20:11:18.246Z,101521.13
2023-01-29T20:14:19.697Z,101528.19
2023-01-29T20:17:21.527Z,101526.31
2023-01-29T20:20:22.955Z,101526.25
2023-01-29T20:23:37.748Z,101524.44
2023-01-29T20:26:40.143Z,101525.06
2023-01-29T20:29:43.498Z,101524.97
2023-01-29T20:32:44.921Z,101525.56
2023-01-29T20:35:56.522Z,101528.72
2023-01-29T20:38:57.987Z,101526.66
2023-01-29T20:41:59.789Z,101532.63
2023-01-29T20:45:01.229Z,101523.97
2023-01-29T20:48:02.637Z,101519.72
2023-01-29T20:51:07.800Z,101520.53
2023-01-29T20:54:09.317Z,101507.41
2023-01-29T20:57:10.780Z,101510.78
2023-01-29T21:00:15.464Z,101504.78
2023-01-29T21:03:17.053Z,101506.38
2023-01-29T21:06:18.542Z,101500.06
2023-01-29T21:09:20.383Z,101509.38
2023-01-29T21:12:21.790Z,101512.72
2023-01-29T21:15:24.583Z,101514.19
2023-01-29T21:18:26.371Z,101514.06
2023-01-29T21:21:27.809Z,101513.94
2023-01-29T21:24:29.201Z,101503.47
2023-01-29T21:27:30.637Z,101502.34
2023-01-29T21:30:32.263Z,101503.94
2023-01-29T21:33:34.955Z,101498.63
2023-01-29T21:36:36.980Z,101512.44
2023-01-29T21:39:38.407Z,101508.16
2023-01-29T21:42:58.458Z,101509.09
2023-01-29T21:46:11.206Z,101496.22
2023-01-29T21:49:12.679Z,101497.16
2023-01-29T21:52:14.976Z,101503.31
2023-01-29T21:55:16.542Z,101492.03
2023-01-29T21:58:19.702Z,101481.75
2023-01-29T22:01:37.325Z,101481.75
2023-01-29T22:04:40.077Z,101477.16
2023-01-29T22:07:41.518Z,101475.34
2023-01-29T22:10:43.090Z,101465.38
2023-01-29T22:13:44.674Z,101457.03
2023-01-29T22:16:46.218Z,101460.44
2023-01-29T22:19:47.743Z,101438.19
2023-01-29T22:22:49.267Z,101432.34
2023-01-29T22:25:50.670Z,101428.50
2023-01-29T22:28:52.053Z,101417.47
2023-01-29T22:31:53.468Z,101409.13
2023-01-29T22:34:54.864Z,101411.16
2023-01-29T22:37:56.290Z,101424.78
2023-01-29T22:41:00.219Z,101429.97
2023-01-29T22:44:02.178Z,101426.47
2023-01-29T22:47:03.581Z,101416.03
2023-01-29T22:50:06.459Z,101405.72
2023-01-29T22:53:08.993Z,101409.19
2023-01-29T22:56:11.705Z,101411.88
2023-01-29T22:59:13.098Z,101419.69
2023-01-29T23:02:14.502Z,101405.88
2023-01-29T23:05:17.259Z,101405.97
2023-01-29T23:08:18.621Z,101401.72
2023-01-29T23:11:23.357Z,101401.94
2023-01-29T23:14:24.725Z,101391.25
2023-01-29T23:17:26.171Z,101382.66
2023-01-29T23:20:27.571Z,101370.50
2023-01-29T23:23:30.094Z,101381.88
2023-01-29T23:26:50.198Z,101387.81
2023-01-29T23:29:51.662Z,101359.22
2023-01-29T23:32:53.038Z,101362.75
2023-01-29T23:35:54.449Z,101369.81
2023-01-29T23:38:55.872Z,101367.22
2023-01-29T23:41:57.406Z,101369.88
2023-01-29T23:44:58.766Z,101369.81
2023-01-29T23:48:00.145Z,101368.91
2023-01-29T23:51:01.756Z,101363.63
2023-01-29T23:54:03.648Z,101345.41
2023-01-29T23:57:05.012Z,101338.47
